Time;durP1;ratioP1;P1;durP2;ratioP2;P2;SDS_P1;SDS_P2;PMS_P1;PMS_P2;Temp;Humidity;BMP_temperature;BMP_pressure;BME280_temperature;BME280_humidity;BME280_pressure;Samples;Min_cycle;Max_cycle;Signal;HPM_P1;HPM_P2
2022/09/20 00:01:34;;;;;;;10.35;5.47;;;;;;;13.04;81.34;102033.13;3610167;39;20051;-63
2022/09/20 00:04:03;;;;;;;8.43;4.82;;;;;;;13.04;81.95;102033.13;3606767;39;20059;-62
2022/09/20 00:06:30;;;;;;;10.77;5.93;;;;;;;13.01;81.82;102033.31;3608231;39;20115;-62
2022/09/20 00:08:58;;;;;;;9.38;4.60;;;;;;;13.07;81.50;102037.50;3610134;39;20050;-63
2022/09/20 00:11:31;;;;;;;10.07;5.00;;;;;;;13.05;81.42;102034.88;3613041;39;20047;-64
2022/09/20 00:14:00;;;;;;;9.45;4.82;;;;;;;13.01;81.31;102033.31;3610941;39;20348;-63
2022/09/20 00:16:34;;;;;;;9.23;4.75;;;;;;;13.02;81.47;102029.63;3612076;39;20051;-64
2022/09/20 00:19:05;;;;;;;9.15;4.90;;;;;;;12.99;81.20;102029.78;3609804;39;20051;-62
2022/09/20 00:21:35;;;;;;;10.13;5.07;;;;;;;12.96;81.84;102024.56;3608274;39;20187;-63
2022/09/20 00:24:01;;;;;;;7.78;4.50;;;;;;;12.81;81.86;101993.84;3608483;39;20161;-63
2022/09/20 00:26:28;;;;;;;9.70;5.03;;;;;;;12.98;81.55;102019.97;3607930;39;20124;-63
2022/09/20 00:28:56;;;;;;;9.73;5.15;;;;;;;13.01;82.14;102025.19;3610849;39;20377;-63
2022/09/20 00:31:22;;;;;;;8.77;4.75;;;;;;;13.02;81.53;102022.41;3613739;39;20102;-62
2022/09/20 00:36:32;;;;;;;8.18;4.97;;;;;;;13.04;81.31;102027.75;3611844;39;20054;-63
2022/09/20 00:39:02;;;;;;;11.77;5.20;;;;;;;13.02;81.04;102035.03;3611528;39;20047;-64
2022/09/20 00:41:30;;;;;;;8.90;4.57;;;;;;;12.99;80.92;102036.06;3611355;39;20062;-62
2022/09/20 00:43:57;;;;;;;10.23;4.78;;;;;;;12.99;81.05;102035.19;3607413;39;20051;-62
2022/09/20 00:46:39;;;;;;;8.13;4.68;;;;;;;12.97;80.88;102032.59;3609309;39;20070;-64
2022/09/20 00:49:21;;;;;;;6.90;5.05;;;;;;;12.87;81.07;102019.63;3611473;39;20051;-62
2022/09/20 00:52:00;;;;;;;7.40;4.93;;;;;;;12.84;80.59;102011.72;3610621;39;20401;-63
2022/09/20 00:54:30;;;;;;;8.00;4.82;;;;;;;12.90;80.90;102032.97;3611652;39;20147;-62
2022/09/20 00:56:57;;;;;;;7.75;4.72;;;;;;;12.87;81.20;102033.13;3610887;39;20063;-63
2022/09/20 00:59:40;;;;;;;6.90;4.72;;;;;;;12.85;81.30;102029.66;3610477;39;20057;-63
2022/09/20 01:02:16;;;;;;;17.45;5.10;;;;;;;12.82;80.88;102032.53;3609680;39;20069;-63
2022/09/20 01:04:47;;;;;;;9.98;4.95;;;;;;;12.70;81.01;102018.69;3612858;39;20055;-63
2022/09/20 01:07:18;;;;;;;5.88;4.63;;;;;;;12.70;81.51;102023.22;3609629;39;20055;-62
2022/09/20 01:09:44;;;;;;;8.90;5.22;;;;;;;12.65;81.39;102031.53;3612306;39;20058;-63
2022/09/20 01:12:18;;;;;;;9.90;5.15;;;;;;;12.61;81.50;102027.25;3611758;39;20398;-63
2022/09/20 01:14:49;;;;;;;8.75;4.68;;;;;;;12.48;81.32;102007.28;3607419;39;20051;-63
2022/09/20 01:17:21;;;;;;;12.07;5.05;;;;;;;12.34;81.41;101993.59;3611682;39;20078;-63
2022/09/20 01:20:18;;;;;;;9.43;5.57;;;;;;;12.51;81.33;102023.28;3609574;39;20116;-62
2022/09/20 01:23:30;;;;;;;9.77;5.18;;;;;;;12.47;82.03;102027.97;3606528;39;20047;-64
2022/09/20 01:26:28;;;;;;;6.57;4.25;;;;;;;12.46;82.19;102025.34;3586877;39;20057;-63
2022/09/20 01:29:12;;;;;;;9.73;4.63;;;;;;;12.45;82.04;102021.78;3611673;39;20055;-63
2022/09/20 01:31:52;;;;;;;8.98;4.85;;;;;;;11.75;81.95;101899.47;3612533;39;20051;-63
2022/09/20 01:34:30;;;;;;;10.68;4.82;;;;;;;12.50;82.72;102026.97;3611240;39;20127;-63
2022/09/20 01:37:35;;;;;;;11.57;4.53;;;;;;;12.50;81.70;102027.81;3608813;39;20059;-65
2022/09/20 01:40:12;;;;;;;8.23;4.85;;;;;;;12.54;82.41;102023.13;3609369;39;20039;-63
2022/09/20 01:43:02;;;;;;;10.25;5.05;;;;;;;12.56;81.40;102023.94;3609807;39;20058;-64
2022/09/20 01:45:31;;;;;;;10.02;4.78;;;;;;;12.57;81.58;102022.97;3610608;39;20386;-63
2022/09/20 01:48:31;;;;;;;7.95;4.20;;;;;;;12.60;81.73;102022.84;3609971;39;20091;-63
2022/09/20 01:51:43;;;;;;;8.70;4.60;;;;;;;12.60;81.48;102027.34;3610051;39;20123;-63
2022/09/20 01:54:46;;;;;;;10.30;4.97;;;;;;;12.59;81.29;102023.78;3610308;39;20070;-63
2022/09/20 01:57:36;;;;;;;8.38;4.15;;;;;;;12.58;81.85;102023.84;3611652;39;20362;-62
2022/09/20 02:00:11;;;;;;;7.78;4.35;;;;;;;12.58;81.69;102030.13;3610031;39;20309;-63
2022/09/20 02:03:11;;;;;;;11.57;4.75;;;;;;;12.55;81.54;102023.03;3609425;39;20140;-64
2022/09/20 02:06:10;;;;;;;9.00;4.68;;;;;;;12.58;82.00;102023.84;3612458;39;20047;-62
2022/09/20 02:08:44;;;;;;;9.52;4.45;;;;;;;12.61;81.86;102024.56;3611028;39;20047;-63
2022/09/20 02:11:19;;;;;;;11.77;4.53;;;;;;;12.64;81.75;102024.41;3610393;39;20675;-63
2022/09/20 02:14:33;;;;;;;9.73;4.07;;;;;;;12.66;81.72;102022.50;3609042;39;20051;-63
2022/09/20 02:17:37;;;;;;;11.15;4.32;;;;;;;12.70;81.66;102024.09;3608281;39;20055;-63
2022/09/20 02:20:43;;;;;;;11.03;4.37;;;;;;;12.72;81.02;102016.81;3608974;39;20054;-63
2022/09/20 02:23:40;;;;;;;7.13;4.20;;;;;;;12.81;81.38;102026.22;3609718;39;20059;-63
2022/09/20 02:26:48;;;;;;;13.13;4.20;;;;;;;12.83;81.03;102039.66;3607575;39;20063;-63
2022/09/20 02:29:39;;;;;;;6.05;3.80;;;;;;;12.86;80.60;102028.69;3610271;39;20398;-63
2022/09/20 02:32:44;;;;;;;7.97;4.47;;;;;;;12.84;80.44;102026.06;3608467;39;20050;-63
2022/09/20 02:35:50;;;;;;;7.63;4.13;;;;;;;12.87;81.21;102025.03;3609654;39;20452;-63
2022/09/20 02:38:45;;;;;;;7.22;4.15;;;;;;;12.85;80.99;102016.16;3609880;39;20416;-63
2022/09/20 02:41:50;;;;;;;8.77;4.45;;;;;;;12.84;80.88;102020.66;3607321;39;20050;-63
2022/09/20 02:44:33;;;;;;;6.57;4.18;;;;;;;12.85;81.00;102022.44;3610227;39;20058;-63
2022/09/20 02:47:40;;;;;;;7.05;4.20;;;;;;;12.83;80.84;102031.56;3609297;39;20340;-63
2022/09/20 02:50:58;;;;;;;7.72;4.50;;;;;;;12.78;81.29;102029.97;3609171;39;20067;-62
2022/09/20 02:53:46;;;;;;;11.45;4.93;;;;;;;12.67;81.94;102018.84;3608413;39;20048;-62
2022/09/20 02:56:38;;;;;;;8.95;5.00;;;;;;;12.76;82.14;102031.00;3608467;39;20046;-62
2022/09/20 02:59:57;;;;;;;10.48;4.60;;;;;;;12.80;81.62;102029.03;3606967;39;20309;-62
2022/09/20 03:03:03;;;;;;;7.70;4.97;;;;;;;12.83;81.66;102028.88;3608218;39;20080;-63
2022/09/20 03:05:51;;;;;;;8.95;4.72;;;;;;;12.59;81.42;101982.44;3608399;39;20050;-64
2022/09/20 03:09:01;;;;;;;11.45;4.68;;;;;;;12.67;81.50;101993.72;3608793;39;20397;-63
2022/09/20 03:11:51;;;;;;;8.90;4.43;;;;;;;12.86;81.71;102013.38;3607655;39;20051;-64
2022/09/20 03:14:45;;;;;;;10.20;4.93;;;;;;;12.88;81.57;102013.31;3608106;39;20099;-62
2022/09/20 03:17:51;;;;;;;9.05;4.90;;;;;;;12.88;81.91;102016.88;3606230;39;20382;-64
2022/09/20 03:20:40;;;;;;;7.65;4.50;;;;;;;12.90;81.23;102014.09;3577879;39;20053;-64
2022/09/20 03:23:49;;;;;;;9.60;4.60;;;;;;;12.88;81.49;102022.28;3609019;39;20108;-62
2022/09/20 03:27:11;;;;;;;10.07;5.13;;;;;;;12.90;81.49;102025.75;3609410;39;21844;-62
2022/09/20 03:29:58;;;;;;;9.40;4.85;;;;;;;12.90;81.55;102020.34;3557529;40;20056;-62
2022/09/20 03:33:08;;;;;;;8.77;5.03;;;;;;;12.91;81.92;102026.66;3557377;40;20387;-64
2022/09/20 03:36:40;;;;;;;7.85;4.93;;;;;;;12.95;81.30;102030.91;3608917;39;20262;-64
2022/09/20 03:39:48;;;;;;;8.73;4.85;;;;;;;12.41;81.43;101933.91;3610401;39;20066;-63
2022/09/20 03:42:28;;;;;;;11.82;5.03;;;;;;;12.94;81.58;102024.66;3606529;39;20055;-63
2022/09/20 03:45:05;;;;;;;7.90;5.50;;;;;;;12.96;81.47;102024.56;3610588;39;20296;-63
2022/09/20 03:47:39;;;;;;;10.18;4.68;;;;;;;12.98;81.30;102019.97;3606859;39;20750;-62
2022/09/20 03:50:35;;;;;;;9.73;5.68;;;;;;;12.98;81.57;102028.06;3607654;39;20384;-64
2022/09/20 03:53:40;;;;;;;10.52;5.47;;;;;;;12.99;81.61;102027.09;3610763;39;20108;-63
2022/09/20 03:56:23;;;;;;;;;;;;;;;12.98;82.02;102028.94;3606367;39;20094;-64
2022/09/20 03:59:44;;;;;;;10.27;5.53;;;;;;;13.02;82.05;102032.34;3606720;39;19932;-63
2022/09/20 04:02:30;;;;;;;11.63;4.95;;;;;;;13.00;81.91;102026.13;3608801;39;20339;-63
2022/09/20 04:05:06;;;;;;;9.02;5.15;;;;;;;12.96;81.68;102013.75;3609708;39;20117;-64
2022/09/20 04:08:16;;;;;;;10.63;5.55;;;;;;;13.03;81.67;102025.97;3607944;39;20093;-64
2022/09/20 04:11:14;;;;;;;8.80;5.25;;;;;;;13.05;81.51;102024.06;3607720;39;20056;-63
2022/09/20 04:13:58;;;;;;;12.95;5.85;;;;;;;13.03;81.77;102023.28;3611025;39;20066;-64
2022/09/20 04:16:57;;;;;;;8.68;4.95;;;;;;;13.09;81.57;102031.06;3610596;39;20095;-63
2022/09/20 04:19:30;;;;;;;9.95;5.20;;;;;;;13.13;81.20;102007.47;3612018;39;20100;-65
2022/09/20 04:21:58;;;;;;;;;;;;;;;13.08;80.99;102002.31;3614708;39;20122;-63
2022/09/20 04:24:59;;;;;;;7.07;4.90;;;;;;;13.09;81.26;102000.50;3614746;39;20278;-62
2022/09/20 04:27:50;;;;;;;9.95;5.25;;;;;;;13.09;81.42;102012.16;3613578;39;20051;-63
2022/09/20 04:30:29;;;;;;;13.68;5.50;;;;;;;13.11;81.67;102015.66;3606507;39;20087;-63
2022/09/20 04:33:27;;;;;;;7.72;5.28;;;;;;;13.09;81.10;102013.97;3611322;39;20059;-63
2022/09/20 04:36:28;;;;;;;6.72;5.10;;;;;;;13.08;81.32;102013.13;3609180;39;20051;-62
2022/09/20 04:39:37;;;;;;;8.02;5.40;;;;;;;13.08;81.67;102009.56;3608647;39;20039;-63
2022/09/20 04:42:21;;;;;;;9.93;5.30;;;;;;;13.09;81.42;102011.28;3591376;39;20066;-64
2022/09/20 04:45:34;;;;;;;8.82;5.22;;;;;;;13.09;81.47;102006.75;3609648;39;20156;-64
2022/09/20 04:48:56;;;;;;;7.50;5.20;;;;;;;12.21;81.30;101875.63;3592910;39;20062;-63
2022/09/20 04:52:06;;;;;;;8.95;5.25;;;;;;;13.05;81.66;102017.81;3603310;39;20381;-65
2022/09/20 04:54:58;;;;;;;7.70;4.93;;;;;;;13.01;81.40;102019.81;3608207;39;20063;-65
2022/09/20 04:57:54;;;;;;;8.40;5.53;;;;;;;13.00;81.85;102034.22;3608805;39;20299;-65
2022/09/20 05:00:23;;;;;;;8.45;5.72;;;;;;;13.00;81.79;102031.53;3609399;39;20067;-63
2022/09/20 05:03:39;;;;;;;10.18;4.93;;;;;;;12.96;81.44;102028.13;3610398;39;20385;-64
2022/09/20 05:06:37;;;;;;;6.45;4.78;;;;;;;12.97;81.36;102026.28;3609214;39;20424;-63
2022/09/20 05:09:43;;;;;;;5.97;4.53;;;;;;;12.95;81.26;102033.63;3607351;39;20103;-63
2022/09/20 05:12:27;;;;;;;9.18;5.10;;;;;;;12.94;81.52;102030.06;3608849;39;20423;-63
2022/09/20 05:15:27;;;;;;;9.38;5.22;;;;;;;12.95;81.56;102033.63;3608470;39;20061;-62
2022/09/20 05:18:17;;;;;;;9.45;5.18;;;;;;;12.94;81.11;102037.25;3609612;39;20386;-63
2022/09/20 05:21:10;;;;;;;8.02;5.55;;;;;;;12.91;81.47;102045.53;3609565;39;20197;-64
2022/09/20 05:24:16;;;;;;;9.35;5.32;;;;;;;12.90;81.47;102041.06;3609658;39;20106;-63
2022/09/20 05:27:29;;;;;;;9.20;5.03;;;;;;;12.88;81.71;102043.00;3601594;39;20151;-63
2022/09/20 05:30:09;;;;;;;4.93;4.43;;;;;;;12.89;81.82;102048.31;3588450;39;20066;-63
2022/09/20 05:33:04;;;;;;;9.18;5.30;;;;;;;12.90;81.37;102051.88;3610026;39;20095;-63
2022/09/20 05:36:11;;;;;;;7.22;5.65;;;;;;;12.84;81.37;102054.88;3609803;39;20305;-63
2022/09/20 05:38:49;;;;;;;9.38;4.93;;;;;;;12.82;81.25;102068.47;3610849;39;20063;-63
2022/09/20 05:41:41;;;;;;;7.97;5.05;;;;;;;12.78;81.95;102064.16;3608848;39;20061;-64
2022/09/20 05:44:39;;;;;;;9.65;5.00;;;;;;;12.83;81.94;102066.63;3609659;39;20086;-64
2022/09/20 05:47:43;;;;;;;8.13;5.45;;;;;;;12.78;81.84;102059.66;3607082;39;20050;-64
2022/09/20 05:50:11;;;;;;;;;;;;;;;12.83;81.76;102063.94;3594678;39;20054;-65
2022/09/20 05:52:58;;;;;;;8.45;5.10;;;;;;;12.86;81.48;102064.66;3609674;39;19935;-64
2022/09/20 05:56:00;;;;;;;9.65;5.22;;;;;;;12.89;81.83;102071.72;3609545;39;20437;-64
2022/09/20 05:59:31;;;;;;;8.65;4.65;;;;;;;12.63;81.44;102017.28;3608583;39;20063;-64
2022/09/20 06:02:50;;;;;;;9.48;4.80;;;;;;;12.90;81.75;102077.03;3569473;40;20065;-64
2022/09/20 06:05:55;;;;;;;11.25;5.55;;;;;;;12.94;81.82;102080.44;3560648;39;20071;-62
2022/09/20 06:08:56;;;;;;;8.90;4.90;;;;;;;12.97;81.44;102081.19;3609839;39;20047;-63
2022/09/20 06:12:02;;;;;;;8.30;5.30;;;;;;;13.01;81.59;102092.69;3608016;39;20372;-64
2022/09/20 06:14:52;;;;;;;6.72;4.85;;;;;;;13.02;81.32;102095.28;3608806;39;20054;-64
2022/09/20 06:17:35;;;;;;;8.85;5.07;;;;;;;13.06;81.45;102096.00;3606869;39;20116;-64
2022/09/20 06:20:26;;;;;;;8.48;5.20;;;;;;;13.00;81.34;102077.41;3610661;39;20115;-64
2022/09/20 06:22:59;;;;;;;7.50;4.70;;;;;;;13.12;80.80;102101.09;3609703;39;20147;-64
2022/09/20 06:25:54;;;;;;;7.90;4.90;;;;;;;13.14;81.21;102093.78;3607395;39;20669;-64
2022/09/20 06:28:33;;;;;;;11.52;4.97;;;;;;;13.18;80.80;102092.66;3608876;39;20054;-64
2022/09/20 06:30:59;;;;;;;4.97;4.43;;;;;;;13.07;80.38;102070.78;3610855;39;20067;-64
2022/09/20 06:33:27;;;;;;;8.63;4.60;;;;;;;13.21;80.28;102095.19;3610514;39;20085;-64
2022/09/20 06:41:25;;;;;;;8.02;5.32;;;;;;;13.22;80.80;102099.66;3607023;39;20402;-64
2022/09/20 06:42:11;;;;;;;11.50;4.95;;;;;;;13.30;80.48;102101.13;3609511;39;20453;-64
2022/09/20 06:44:42;;;;;;;8.27;4.90;;;;;;;13.31;80.58;102101.03;3607339;39;20063;-64
2022/09/20 06:47:12;;;;;;;9.55;5.15;;;;;;;13.35;80.22;102108.03;3609334;39;20043;-64
2022/09/20 06:49:41;;;;;;;8.60;5.40;;;;;;;13.35;80.58;102097.22;3609492;39;20070;-63
2022/09/20 06:52:13;;;;;;;5.93;5.07;;;;;;;13.44;80.46;102101.25;3609232;39;20059;-63
2022/09/20 06:54:44;;;;;;;7.05;5.20;;;;;;;13.40;80.04;102095.13;3612441;39;20053;-64
2022/09/20 06:57:15;;;;;;;7.32;5.20;;;;;;;13.44;79.85;102099.41;3613131;39;20051;-63
2022/09/20 06:59:41;;;;;;;7.22;5.32;;;;;;;13.49;80.22;102101.88;3609766;39;20052;-64
2022/09/20 07:02:07;;;;;;;6.70;4.93;;;;;;;13.52;79.78;102099.03;3613612;39;20054;-64
2022/09/20 07:04:33;;;;;;;7.72;5.18;;;;;;;13.55;79.75;102103.38;3610847;39;20128;-64
2022/09/20 07:07:05;;;;;;;6.93;5.07;;;;;;;13.58;80.23;102104.09;3612524;39;20054;-64
2022/09/20 07:09:31;;;;;;;9.15;4.97;;;;;;;13.60;79.60;102099.47;3610508;39;20062;-64
2022/09/20 07:12:00;;;;;;;6.97;4.60;;;;;;;13.63;79.57;102102.00;3612535;39;20312;-63
2022/09/20 07:14:26;;;;;;;8.02;4.72;;;;;;;13.72;78.83;102099.75;3612138;39;20051;-64
2022/09/20 07:16:53;;;;;;;9.15;5.25;;;;;;;13.78;78.90;102115.66;3613295;39;20063;-64
2022/09/20 07:19:19;;;;;;;5.85;4.70;;;;;;;13.85;78.46;102101.69;3610957;39;20053;-64
2022/09/20 07:21:45;;;;;;;8.18;4.65;;;;;;;13.93;78.08;102101.28;3612278;39;20046;-64
2022/09/20 07:24:13;;;;;;;6.55;4.70;;;;;;;13.98;78.09;102104.59;3612223;39;20055;-64
2022/09/20 07:26:56;;;;;;;7.43;4.55;;;;;;;14.03;77.43;102093.53;3613953;39;20047;-64
2022/09/20 07:29:23;;;;;;;9.55;6.43;;;;;;;14.03;76.72;102091.69;3610405;39;20059;-64
2022/09/20 07:31:49;;;;;;;8.07;4.60;;;;;;;14.13;76.74;102095.63;3608745;39;20067;-64
2022/09/20 07:34:19;;;;;;;8.00;4.72;;;;;;;14.09;77.20;102072.44;3610605;39;20381;-64
2022/09/20 07:36:46;;;;;;;7.40;4.70;;;;;;;14.36;77.17;102097.00;3612180;39;20055;-64
2022/09/20 07:39:12;;;;;;;8.60;4.35;;;;;;;14.34;75.70;102088.13;3611329;39;20051;-64
2022/09/20 07:41:37;;;;;;;6.43;3.83;;;;;;;14.51;75.79;102099.84;3612357;39;20130;-63
2022/09/20 07:44:23;;;;;;;7.55;4.10;;;;;;;14.63;75.22;102107.25;3611522;39;20415;-65
2022/09/20 07:46:56;;;;;;;5.78;3.50;;;;;;;14.79;74.56;102107.22;3611020;39;20305;-63
2022/09/20 07:49:22;;;;;;;5.38;3.55;;;;;;;14.89;74.29;102119.25;3609254;39;20469;-64
2022/09/20 07:51:49;;;;;;;6.45;3.60;;;;;;;14.96;73.68;102115.19;3610249;39;20059;-64
2022/09/20 07:54:16;;;;;;;6.30;3.53;;;;;;;15.01;73.43;102113.09;3610773;39;20057;-65
2022/09/20 07:56:43;;;;;;;5.80;3.17;;;;;;;15.07;73.04;102122.69;3612428;39;20050;-64
2022/09/20 07:59:09;;;;;;;7.30;3.65;;;;;;;15.15;72.41;102119.50;3610898;39;20051;-64
2022/09/20 08:01:37;;;;;;;6.25;3.80;;;;;;;15.18;72.27;102124.75;3611429;39;20312;-64
2022/09/20 08:04:05;;;;;;;4.28;2.83;;;;;;;15.17;70.29;102132.00;3611918;39;20090;-64
2022/09/20 08:06:34;;;;;;;6.72;2.90;;;;;;;15.19;70.12;102131.91;3609041;39;20059;-64
2022/09/20 08:09:00;;;;;;;6.22;2.95;;;;;;;15.19;69.57;102135.50;3610355;39;20131;-64
2022/09/20 08:11:27;;;;;;;4.60;3.08;;;;;;;15.17;69.64;102139.25;3610711;39;20046;-65
2022/09/20 08:13:54;;;;;;;5.00;3.03;;;;;;;15.17;70.00;102137.41;3612323;39;20055;-64
2022/09/20 08:16:20;;;;;;;6.47;3.40;;;;;;;15.42;70.98;102142.22;3610076;39;20108;-64
2022/09/20 08:19:01;;;;;;;7.20;3.10;;;;;;;15.68;70.45;102140.63;3606800;39;20043;-64
2022/09/20 08:21:31;;;;;;;6.70;2.70;;;;;;;15.89;69.89;102130.28;3609391;39;20047;-64
2022/09/20 08:23:59;;;;;;;7.93;3.70;;;;;;;16.24;68.80;102135.31;3609717;39;20050;-64
2022/09/20 08:26:27;;;;;;;8.30;2.95;;;;;;;16.52;66.12;102128.91;3609423;39;20120;-65
2022/09/20 08:28:56;;;;;;;7.90;2.42;;;;;;;16.36;65.08;102090.19;3610142;39;20059;-64
2022/09/20 08:31:29;;;;;;;4.07;2.50;;;;;;;16.75;63.46;102145.53;3608750;39;20143;-64
2022/09/20 08:33:55;;;;;;;8.93;2.50;;;;;;;16.83;64.04;102148.63;3609205;39;20108;-64
2022/09/20 08:36:24;;;;;;;4.57;2.33;;;;;;;17.00;62.81;102151.09;3606200;39;20066;-65
2022/09/20 08:38:52;;;;;;;5.50;2.03;;;;;;;17.26;62.60;102146.59;3609107;39;20083;-64
2022/09/20 08:41:33;;;;;;;6.68;2.22;;;;;;;17.42;61.84;102146.41;3608043;39;20051;-65
2022/09/20 08:44:03;;;;;;;5.75;1.48;;;;;;;17.64;59.52;102152.06;3609892;39;20079;-64
2022/09/20 08:46:38;;;;;;;4.22;1.50;;;;;;;17.91;57.48;102155.69;3609346;39;20175;-64
2022/09/20 08:49:07;;;;;;;5.18;1.70;;;;;;;18.20;58.62;102149.00;3612252;39;20067;-64
2022/09/20 08:51:38;;;;;;;6.32;1.75;;;;;;;17.71;56.48;102045.56;3608705;39;20067;-64
2022/09/20 08:54:14;;;;;;;3.80;1.52;;;;;;;18.56;53.38;102147.28;3608037;39;20108;-64
2022/09/20 08:56:45;;;;;;;4.40;1.40;;;;;;;18.79;51.99;102153.75;3611973;39;20334;-64
2022/09/20 08:59:19;;;;;;;4.68;1.48;;;;;;;18.99;52.74;102153.09;3609259;39;20039;-64
2022/09/20 09:01:47;;;;;;;6.70;1.92;;;;;;;19.10;51.25;102148.69;3609612;39;20405;-64
2022/09/20 09:04:23;;;;;;;5.38;1.30;;;;;;;19.24;49.14;102152.06;3611766;39;20051;-64
2022/09/20 09:06:51;;;;;;;3.95;1.05;;;;;;;19.42;49.60;102154.38;3609238;39;20059;-64
2022/09/20 09:09:27;;;;;;;3.45;1.20;;;;;;;19.60;48.30;102155.66;3609825;39;20123;-64
2022/09/20 09:11:56;;;;;;;3.75;1.00;;;;;;;19.70;48.54;102161.28;3614053;39;20060;-63
2022/09/20 09:14:50;;;;;;;4.82;1.33;;;;;;;19.78;48.60;102149.75;3613087;39;20119;-64
2022/09/20 09:17:25;;;;;;;6.43;1.60;;;;;;;19.92;48.40;102155.00;3610452;39;20051;-64
2022/09/20 09:20:26;;;;;;;2.83;1.00;;;;;;;19.88;47.73;102150.75;3611660;39;20050;-64
2022/09/20 09:23:05;;;;;;;3.45;1.20;;;;;;;20.00;47.79;102149.75;3571370;40;20099;-64
2022/09/20 09:25:37;;;;;;;5.65;1.38;;;;;;;20.11;47.19;102141.59;3605102;39;20263;-64
2022/09/20 09:28:13;;;;;;;6.03;1.83;;;;;;;20.25;46.38;102148.63;3611570;39;20401;-64
2022/09/20 09:30:48;;;;;;;7.18;1.40;;;;;;;20.27;45.08;102154.84;3602900;39;20533;-64
2022/09/20 09:33:27;;;;;;;4.75;1.38;;;;;;;20.20;45.00;102155.47;3611308;39;20051;-64
2022/09/20 09:36:03;;;;;;;6.22;1.23;;;;;;;20.15;44.18;102159.44;3612809;39;20301;-65
2022/09/20 09:38:36;;;;;;;4.72;1.15;;;;;;;19.53;43.71;102061.66;3609496;39;20078;-64
2022/09/20 09:41:25;;;;;;;2.53;0.90;;;;;;;19.85;45.56;102151.00;3611047;39;20366;-63
2022/09/20 09:44:15;;;;;;;4.45;1.40;;;;;;;19.79;45.73;102151.47;3611699;39;20072;-64
2022/09/20 09:46:40;;;;;;;5.45;1.08;;;;;;;19.71;45.71;102149.38;3609069;39;20384;-64
2022/09/20 09:49:15;;;;;;;5.93;1.52;;;;;;;19.63;48.22;102146.34;3610526;39;20119;-64
2022/09/20 09:52:01;;;;;;;4.50;0.85;;;;;;;19.48;47.90;102162.06;3611376;39;20100;-64
2022/09/20 09:54:37;;;;;;;9.48;1.15;;;;;;;19.22;47.75;102155.94;3611246;39;20054;-64
2022/09/20 09:57:42;;;;;;;5.20;1.23;;;;;;;19.00;48.43;102162.16;3611224;39;20050;-64
2022/09/20 10:00:20;;;;;;;;;;;;;;;18.77;49.27;102158.44;3609729;39;20078;-64
2022/09/20 10:02:52;;;;;;;5.55;1.33;;;;;;;18.53;49.79;102156.53;3610843;39;19927;-64
2022/09/20 10:05:29;;;;;;;4.25;1.30;;;;;;;18.34;48.81;102161.59;3609468;39;20058;-64
2022/09/20 10:08:39;;;;;;;2.97;0.93;;;;;;;18.09;50.89;102167.97;3610351;39;20091;-64
2022/09/20 10:11:46;;;;;;;7.25;1.48;;;;;;;17.90;51.77;102164.84;3610047;39;20093;-64
2022/09/20 10:14:50;;;;;;;3.53;1.30;;;;;;;17.72;53.97;102167.84;3603261;39;20055;-64
2022/09/20 10:17:50;;;;;;;3.72;1.10;;;;;;;17.36;54.21;102141.38;3607638;39;20057;-63
2022/09/20 10:20:40;;;;;;;3.80;1.20;;;;;;;17.36;54.33;102168.56;3609216;39;20107;-64
2022/09/20 10:23:27;;;;;;;2.58;1.00;;;;;;;17.23;53.19;102168.53;3608913;39;20082;-64
2022/09/20 10:26:26;;;;;;;3.38;1.10;;;;;;;17.10;54.35;102170.38;3611073;39;20051;-63
2022/09/20 10:29:32;;;;;;;2.97;1.00;;;;;;;16.90;56.40;102161.72;3608181;39;20408;-64
2022/09/20 10:32:39;;;;;;;7.28;1.70;;;;;;;16.76;56.72;102166.31;3611436;39;20441;-64
2022/09/20 10:35:32;;;;;;;5.60;1.20;;;;;;;16.62;57.82;102159.94;3609321;39;20047;-64
2022/09/20 10:38:28;;;;;;;5.53;1.15;;;;;;;16.57;58.32;102161.19;3611504;39;20047;-64
2022/09/20 10:44:26;;;;;;;5.93;1.20;;;;;;;16.59;59.23;102156.56;3611531;39;20154;-64
2022/09/20 10:47:14;;;;;;;5.68;1.35;;;;;;;16.70;58.43;102160.28;3608481;39;20054;-64
2022/09/20 10:50:14;;;;;;;6.30;2.05;;;;;;;16.81;57.75;102162.34;3609198;39;20069;-64
2022/09/20 10:53:21;;;;;;;7.25;1.55;;;;;;;17.02;57.71;102161.84;3610273;39;20421;-64
2022/09/20 10:56:13;;;;;;;7.15;1.73;;;;;;;17.21;55.58;102159.63;3611090;39;20067;-64
2022/09/20 10:59:27;;;;;;;6.55;1.45;;;;;;;17.39;55.97;102171.06;3607291;39;20066;-64
2022/09/20 11:02:39;;;;;;;4.07;1.15;;;;;;;17.61;54.78;102167.72;3557187;40;20127;-64
2022/09/20 11:05:37;;;;;;;5.28;1.40;;;;;;;17.75;55.34;102174.91;3559465;40;20052;-66
2022/09/20 11:08:31;;;;;;;3.83;1.48;;;;;;;17.86;54.30;102162.31;3608391;39;20271;-65
2022/09/20 11:11:16;;;;;;;3.67;1.15;;;;;;;18.09;54.57;102178.84;3608919;39;20040;-65
2022/09/20 11:14:28;;;;;;;4.57;0.95;;;;;;;18.10;52.73;102169.69;3607893;39;20325;-64
2022/09/20 11:17:08;;;;;;;6.88;1.73;;;;;;;18.38;56.17;102171.28;3606154;39;20087;-64
2022/09/20 11:20:21;;;;;;;6.20;1.55;;;;;;;19.09;52.45;102169.59;3609568;39;20058;-65
2022/09/20 11:22:59;;;;;;;4.30;0.98;;;;;;;19.68;50.46;102146.88;3612408;39;20055;-64
2022/09/20 11:25:43;;;;;;;4.57;1.40;;;;;;;20.63;47.71;102175.56;3603303;39;20353;-64
2022/09/20 11:29:00;;;;;;;4.75;1.13;;;;;;;21.35;44.77;102176.84;3611303;39;20347;-64
2022/09/20 11:31:38;;;;;;;5.63;1.25;;;;;;;21.06;43.05;102171.97;3558295;40;20080;-63
2022/09/20 11:34:25;;;;;;;3.95;1.27;;;;;;;20.57;44.94;102165.13;3601435;39;20051;-64
2022/09/20 11:37:02;;;;;;;9.82;1.30;;;;;;;20.13;47.35;102176.94;3604967;39;20078;-64
2022/09/20 11:39:47;;;;;;;3.58;1.50;;;;;;;19.55;45.99;102182.41;3607555;39;20107;-64
2022/09/20 11:42:20;;;;;;;5.47;1.45;;;;;;;19.15;47.35;102185.50;3608663;39;20119;-65
2022/09/20 11:44:46;;;;;;;3.83;1.02;;;;;;;18.75;48.96;102176.78;3609762;39;20120;-65
2022/09/20 11:47:28;;;;;;;15.30;2.20;;;;;;;18.42;49.73;102190.97;3602186;39;20051;-65
2022/09/20 11:50:15;;;;;;;8.80;2.00;;;;;;;18.15;50.09;102197.47;3606811;39;20434;-64
2022/09/20 11:53:23;;;;;;;3.08;0.93;;;;;;;17.82;51.52;102190.75;3607225;39;20058;-64
2022/09/20 11:56:19;;;;;;;6.25;1.15;;;;;;;17.60;52.47;102190.44;3608373;39;20059;-65
2022/09/20 11:58:50;;;;;;;2.30;0.80;;;;;;;17.49;53.65;102179.47;3610559;39;20070;-65
2022/09/20 12:01:39;;;;;;;3.15;0.85;;;;;;;17.51;52.97;102183.81;3608315;39;20241;-63
2022/09/20 12:04:22;;;;;;;4.90;1.02;;;;;;;17.61;52.87;102192.22;3606071;39;20095;-64
2022/09/20 12:07:01;;;;;;;2.60;0.73;;;;;;;17.72;53.47;102192.31;3608434;39;20397;-64
2022/09/20 12:09:37;;;;;;;4.18;1.40;;;;;;;17.77;53.47;102198.34;3610310;39;20052;-65
2022/09/20 12:12:42;;;;;;;3.83;1.20;;;;;;;17.78;52.69;102191.91;3610256;39;20043;-64
2022/09/20 12:15:20;;;;;;;5.60;1.05;;;;;;;17.77;54.02;102198.34;3607566;39;20049;-65
2022/09/20 12:17:45;;;;;;;4.97;1.08;;;;;;;17.74;53.22;102190.38;3608373;39;20065;-64
2022/09/20 12:20:43;;;;;;;2.90;0.90;;;;;;;17.70;53.01;102199.72;3612443;39;20058;-65
2022/09/20 12:23:37;;;;;;;3.25;1.00;;;;;;;17.63;53.40;102193.84;3609202;39;20078;-65
2022/09/20 12:26:27;;;;;;;4.43;1.00;;;;;;;17.73;53.11;102188.63;3612687;39;20053;-63
2022/09/20 12:28:59;;;;;;;3.10;1.13;;;;;;;17.73;53.35;102202.22;3611402;39;20059;-65
2022/09/20 12:31:25;;;;;;;3.42;0.82;;;;;;;17.77;52.96;102205.63;3612357;39;21378;-64
2022/09/20 12:34:02;;;;;;;3.95;1.45;;;;;;;17.74;54.07;102205.81;3616889;39;20061;-65
2022/09/20 12:36:34;;;;;;;2.72;0.75;;;;;;;17.64;53.82;102173.81;3612773;39;20072;-64
2022/09/20 12:39:14;;;;;;;2.05;0.68;;;;;;;17.74;54.02;102167.75;3611789;39;20113;-64
2022/09/20 12:41:51;;;;;;;3.47;1.10;;;;;;;18.47;53.25;102167.88;3613405;39;20054;-64
2022/09/20 12:44:53;;;;;;;4.88;1.13;;;;;;;19.98;47.85;102200.91;3613248;39;20065;-65
2022/09/20 12:47:24;;;;;;;6.30;1.20;;;;;;;20.98;44.02;102190.88;3614724;39;20053;-65
2022/09/20 12:52:56;;;;;;;5.78;1.30;;;;;;;20.72;44.40;102189.47;3610169;39;20124;-65
2022/09/20 12:55:42;;;;;;;2.20;0.77;;;;;;;20.23;46.24;102183.38;3612517;39;20390;-65
2022/09/20 13:00:46;;;;;;;3.53;1.02;;;;;;;19.68;45.68;102172.31;3609227;39;20090;-64